Time;durP1;ratioP1;P1;durP2;ratioP2;P2;SDS_P1;SDS_P2;PMS_P1;PMS_P2;Temp;Humidity;BMP_temperature;BMP_pressure;BME280_temperature;BME280_humidity;BME280_pressure;Samples;Min_cycle;Max_cycle;Signal;HPM_P1;HPM_P2
2023/09/16 00:00:09;;;;;;;6.55;5.15;;;14.30;99.90;;;;;;6159525;23;20333;-68
2023/09/16 00:02:35;;;;;;;9.93;5.78;;;14.30;99.90;;;;;;6184229;23;20071;-68
2023/09/16 00:05:01;;;;;;;6.88;5.15;;;14.30;99.90;;;;;;6210752;23;20098;-68
2023/09/16 00:07:27;;;;;;;7.63;5.60;;;14.20;99.90;;;;;;6184776;23;20146;-68
2023/09/16 00:09:56;;;;;;;7.38;5.32;;;14.20;99.90;;;;;;6210920;23;20547;-68
2023/09/16 00:12:23;;;;;;;10.43;5.63;;;14.20;99.90;;;;;;6184286;23;20037;-68
2023/09/16 00:14:49;;;;;;;8.07;5.32;;;14.20;99.90;;;;;;6184229;23;20027;-68
2023/09/16 00:17:14;;;;;;;8.05;5.53;;;14.20;99.90;;;;;;6159426;23;20048;-68
2023/09/16 00:19:40;;;;;;;8.40;5.95;;;14.20;99.90;;;;;;6184324;23;20031;-68
2023/09/16 00:22:10;;;;;;;9.20;6.10;;;14.20;99.90;;;;;;6211275;23;20135;-68
2023/09/16 00:24:40;;;;;;;9.98;6.38;;;14.20;99.90;;;;;;6184050;23;20376;-68
2023/09/16 00:27:09;;;;;;;8.65;5.70;;;14.20;99.90;;;;;;6211586;23;20048;-68
2023/09/16 00:29:35;;;;;;;10.65;6.20;;;14.10;99.90;;;;;;6184067;23;20456;-68
2023/09/16 00:32:04;;;;;;;9.63;6.40;;;14.10;99.90;;;;;;6211111;23;20016;-68
2023/09/16 00:34:30;;;;;;;12.60;6.47;;;14.10;99.90;;;;;;6159392;23;20021;-68
2023/09/16 00:36:56;;;;;;;7.07;5.57;;;14.10;99.90;;;;;;6184071;23;20021;-68
2023/09/16 00:39:24;;;;;;;7.88;5.70;;;14.00;99.90;;;;;;6210949;23;20023;-68
2023/09/16 00:41:50;;;;;;;12.25;5.68;;;14.00;99.90;;;;;;6210917;23;20009;-69
2023/09/16 00:44:16;;;;;;;6.88;5.30;;;14.00;99.90;;;;;;6210808;23;20672;-69
2023/09/16 00:46:42;;;;;;;9.48;5.63;;;14.00;99.90;;;;;;6211155;23;20353;-68
2023/09/16 00:49:08;;;;;;;9.73;6.65;;;14.00;99.90;;;;;;6184135;23;20352;-68
2023/09/16 00:51:34;;;;;;;7.10;5.50;;;13.90;99.90;;;;;;6211337;23;20024;-68
2023/09/16 00:54:01;;;;;;;8.68;6.28;;;13.90;99.90;;;;;;6184127;23;20353;-68
2023/09/16 00:56:29;;;;;;;8.25;6.05;;;14.00;99.90;;;;;;6183819;23;20024;-68
2023/09/16 00:58:59;;;;;;;8.50;6.15;;;13.90;99.90;;;;;;6210688;23;20021;-68
2023/09/16 01:01:25;;;;;;;7.03;5.82;;;13.90;99.90;;;;;;6211621;23;20021;-68
2023/09/16 01:03:52;;;;;;;9.30;6.57;;;13.90;99.90;;;;;;6211164;23;20028;-68
2023/09/16 01:06:19;;;;;;;9.45;6.35;;;13.80;99.90;;;;;;6211221;23;20020;-68
2023/09/16 01:08:46;;;;;;;11.48;6.45;;;13.90;99.90;;;;;;6211022;23;20017;-68
2023/09/16 01:11:12;;;;;;;8.23;6.32;;;13.90;99.90;;;;;;6210898;23;20020;-68
2023/09/16 01:13:39;;;;;;;9.63;6.10;;;13.90;99.90;;;;;;6211186;23;20048;-68
2023/09/16 01:16:17;;;;;;;11.32;7.47;;;13.90;99.90;;;;;;6210884;23;20050;-68
2023/09/16 01:18:50;;;;;;;8.05;6.65;;;13.80;99.90;;;;;;6210877;23;20035;-68
2023/09/16 01:21:17;;;;;;;9.15;6.53;;;13.90;99.90;;;;;;6183986;23;20027;-68
2023/09/16 01:23:44;;;;;;;14.57;7.45;;;13.90;99.90;;;;;;6183607;23;20123;-68
2023/09/16 01:26:10;;;;;;;10.80;7.05;;;13.90;99.90;;;;;;6210630;23;20008;-67
2023/09/16 01:28:36;;;;;;;9.57;7.75;;;13.90;99.90;;;;;;6184057;23;20348;-68
2023/09/16 01:31:03;;;;;;;12.15;7.63;;;13.90;99.90;;;;;;6184042;23;20024;-67
2023/09/16 01:33:47;;;;;;;8.63;6.18;;;13.90;99.90;;;;;;6210742;23;20044;-68
2023/09/16 01:36:18;;;;;;;7.20;6.07;;;13.90;99.90;;;;;;6209476;23;20024;-68
2023/09/16 01:38:47;;;;;;;11.75;6.90;;;13.80;99.90;;;;;;6210780;23;20017;-68
2023/09/16 01:41:16;;;;;;;12.90;7.88;;;13.80;99.90;;;;;;6210592;23;20012;-68
2023/09/16 01:43:42;;;;;;;11.23;7.35;;;13.90;99.90;;;;;;6184334;23;20087;-68
2023/09/16 01:46:09;;;;;;;9.43;6.65;;;13.90;99.90;;;;;;6184407;23;20027;-68
2023/09/16 01:48:35;;;;;;;11.98;8.13;;;13.80;99.90;;;;;;6211590;23;20048;-68
2023/09/16 01:51:01;;;;;;;12.80;8.98;;;13.90;99.90;;;;;;6184075;23;20020;-68
2023/09/16 01:53:26;;;;;;;13.32;8.80;;;13.90;99.90;;;;;;6184050;23;20016;-68
2023/09/16 01:55:52;;;;;;;12.13;8.20;;;13.80;99.90;;;;;;6184200;23;20029;-69
2023/09/16 01:58:18;;;;;;;12.13;8.02;;;13.80;99.90;;;;;;6210389;23;20025;-68
2023/09/16 02:00:43;;;;;;;10.57;8.25;;;13.80;99.90;;;;;;6183815;23;20088;-68
2023/09/16 02:03:10;;;;;;;11.82;8.30;;;13.80;99.90;;;;;;6210684;23;20086;-67
2023/09/16 02:05:35;;;;;;;10.60;7.43;;;13.80;99.90;;;;;;6210506;23;20036;-68
2023/09/16 02:08:01;;;;;;;8.73;7.82;;;13.80;99.90;;;;;;6183575;23;20020;-68
2023/09/16 02:10:27;;;;;;;11.00;8.68;;;13.80;99.90;;;;;;6210874;23;20016;-68
2023/09/16 02:12:54;;;;;;;10.60;8.27;;;13.80;99.90;;;;;;6184018;23;20020;-68
2023/09/16 02:15:19;;;;;;;12.00;8.43;;;13.80;99.90;;;;;;6183913;23;20103;-68
2023/09/16 02:17:45;;;;;;;12.02;8.55;;;13.80;99.90;;;;;;6183847;23;20108;-68
2023/09/16 02:20:11;;;;;;;12.32;7.68;;;13.80;99.90;;;;;;6183430;23;20021;-67
2023/09/16 02:22:38;;;;;;;11.00;8.10;;;13.80;99.90;;;;;;6210748;23;20025;-68
2023/09/16 02:25:04;;;;;;;11.90;8.23;;;13.80;99.90;;;;;;6210754;23;20027;-68
2023/09/16 02:27:29;;;;;;;11.30;7.60;;;13.80;99.90;;;;;;6184775;23;20024;-68
2023/09/16 02:29:55;;;;;;;14.23;8.77;;;13.80;99.90;;;;;;6212526;23;20060;-68
2023/09/16 02:32:21;;;;;;;13.88;9.38;;;13.80;99.90;;;;;;6212449;23;20016;-68
2023/09/16 02:34:47;;;;;;;13.32;9.13;;;13.80;99.90;;;;;;6185185;23;20388;-68
2023/09/16 02:37:12;;;;;;;14.25;8.52;;;13.80;99.90;;;;;;6212308;23;20024;-68
2023/09/16 02:39:38;;;;;;;14.60;8.98;;;13.80;99.90;;;;;;6212402;23;20028;-68
2023/09/16 02:42:04;;;;;;;11.02;9.18;;;13.80;99.90;;;;;;6212385;23;20357;-68
2023/09/16 02:44:30;;;;;;;12.38;9.25;;;13.80;99.90;;;;;;6212621;23;20380;-68
2023/09/16 02:46:56;;;;;;;13.52;9.80;;;13.90;99.90;;;;;;6185415;23;20075;-68
2023/09/16 02:49:22;;;;;;;11.80;9.50;;;13.90;99.90;;;;;;6185185;23;20008;-68
2023/09/16 02:51:48;;;;;;;12.27;9.55;;;13.90;99.90;;;;;;6212091;23;20747;-69
2023/09/16 02:54:14;;;;;;;13.10;9.93;;;13.90;99.90;;;;;;6212111;23;20080;-68
2023/09/16 02:56:40;;;;;;;16.52;9.68;;;13.90;99.90;;;;;;6184981;23;20025;-68
2023/09/16 02:59:05;;;;;;;14.35;9.77;;;13.80;99.90;;;;;;6212152;23;20095;-69
2023/09/16 03:01:31;;;;;;;13.40;9.70;;;13.90;99.90;;;;;;6185835;23;20080;-68
2023/09/16 03:03:57;;;;;;;12.10;9.63;;;13.90;99.90;;;;;;6211670;23;20047;-68
2023/09/16 03:06:25;;;;;;;14.00;10.38;;;13.90;99.90;;;;;;6212384;23;20052;-68
2023/09/16 03:08:50;;;;;;;13.00;9.25;;;13.90;99.90;;;;;;6185580;23;20020;-68
2023/09/16 03:11:16;;;;;;;16.02;9.68;;;13.90;99.90;;;;;;6212815;23;20017;-68
2023/09/16 03:13:42;;;;;;;11.75;9.25;;;13.90;99.90;;;;;;6212872;23;20111;-69
2023/09/16 03:16:17;;;;;;;12.77;9.75;;;13.90;99.90;;;;;;6186358;23;20024;-68
2023/09/16 03:18:48;;;;;;;15.10;10.18;;;13.90;99.90;;;;;;6212322;23;20456;-68
2023/09/16 03:21:15;;;;;;;13.48;9.80;;;13.80;99.90;;;;;;6185423;23;20448;-68
2023/09/16 03:23:42;;;;;;;15.52;10.88;;;13.80;99.90;;;;;;6211905;23;20112;-68
2023/09/16 03:26:09;;;;;;;14.80;10.43;;;13.80;99.90;;;;;;6212186;23;20345;-68
2023/09/16 03:28:35;;;;;;;14.45;10.73;;;13.80;99.90;;;;;;6185059;23;20365;-68
2023/09/16 03:31:01;;;;;;;14.52;9.88;;;13.80;99.90;;;;;;6211654;23;20099;-68
2023/09/16 03:33:27;;;;;;;12.45;9.98;;;13.80;99.90;;;;;;6184715;23;20029;-68
2023/09/16 03:35:52;;;;;;;12.77;10.18;;;13.80;99.90;;;;;;6184992;23;20028;-68
2023/09/16 03:38:18;;;;;;;12.50;9.25;;;13.80;99.90;;;;;;6210992;23;20025;-68
2023/09/16 03:40:44;;;;;;;13.73;9.77;;;13.80;99.90;;;;;;6211817;23;20021;-69
2023/09/16 03:43:10;;;;;;;10.98;9.10;;;13.80;99.90;;;;;;6211762;23;20023;-68
2023/09/16 03:45:35;;;;;;;14.23;10.48;;;13.70;99.90;;;;;;6185434;23;20025;-68
2023/09/16 03:48:01;;;;;;;12.07;9.60;;;13.70;99.90;;;;;;6184616;23;20024;-69
2023/09/16 03:50:27;;;;;;;12.45;9.40;;;13.80;99.90;;;;;;6211974;23;20051;-68
2023/09/16 03:52:53;;;;;;;14.73;9.52;;;13.70;99.90;;;;;;6184951;23;20526;-68
2023/09/16 03:55:19;;;;;;;12.15;9.02;;;13.70;99.90;;;;;;6211959;23;20052;-68
2023/09/16 03:57:45;;;;;;;13.30;9.25;;;13.70;99.90;;;;;;6210979;23;20026;-68
2023/09/16 04:00:12;;;;;;;14.20;8.90;;;13.70;99.90;;;;;;6184611;23;20021;-68
2023/09/16 04:02:40;;;;;;;13.05;9.48;;;13.70;99.90;;;;;;6211262;23;20082;-68
2023/09/16 04:05:06;;;;;;;12.95;8.93;;;13.60;99.90;;;;;;6184685;23;20020;-68
2023/09/16 04:07:32;;;;;;;13.73;9.73;;;13.60;99.90;;;;;;6185043;23;20356;-69
2023/09/16 04:09:58;;;;;;;13.05;8.63;;;13.60;99.90;;;;;;6184723;23;20044;-69
2023/09/16 04:12:23;;;;;;;14.23;8.77;;;13.60;99.90;;;;;;6211392;23;20046;-69
2023/09/16 04:14:50;;;;;;;13.55;9.30;;;13.60;99.90;;;;;;6211218;23;20029;-68
2023/09/16 04:17:16;;;;;;;12.88;9.07;;;13.50;99.90;;;;;;6211084;23;20460;-68
2023/09/16 04:19:41;;;;;;;13.43;8.82;;;13.50;99.90;;;;;;6184780;23;20021;-68
2023/09/16 04:22:07;;;;;;;11.55;9.13;;;13.40;99.90;;;;;;6184406;23;20353;-68
2023/09/16 04:24:33;;;;;;;14.23;10.02;;;13.40;99.90;;;;;;6184668;23;20082;-68
2023/09/16 04:26:59;;;;;;;11.60;8.60;;;13.40;99.90;;;;;;6184406;23;20083;-67
2023/09/16 04:29:24;;;;;;;9.77;7.97;;;13.30;99.90;;;;;;6184529;23;20353;-68
2023/09/16 04:31:51;;;;;;;12.30;8.48;;;13.30;99.90;;;;;;6211410;23;20028;-68
2023/09/16 04:34:17;;;;;;;11.95;7.70;;;13.30;99.90;;;;;;6184779;23;20070;-68
2023/09/16 04:36:42;;;;;;;9.80;7.15;;;13.20;99.90;;;;;;6211369;23;20016;-68
2023/09/16 04:39:08;;;;;;;11.00;7.68;;;13.20;99.90;;;;;;6184647;23;20027;-67
2023/09/16 04:41:35;;;;;;;9.70;7.95;;;13.20;99.90;;;;;;6184201;23;20477;-68
2023/09/16 04:44:00;;;;;;;11.45;7.82;;;13.20;99.90;;;;;;6184173;23;20044;-68
2023/09/16 04:46:26;;;;;;;8.77;7.10;;;13.20;99.90;;;;;;6211066;23;20640;-68
2023/09/16 04:48:52;;;;;;;8.85;7.03;;;13.20;99.90;;;;;;6184202;23;20075;-68
2023/09/16 04:51:17;;;;;;;9.95;7.18;;;13.20;99.90;;;;;;6211054;23;20096;-67
2023/09/16 04:53:43;;;;;;;11.27;7.68;;;13.10;99.90;;;;;;6211270;23;20528;-68
2023/09/16 04:56:09;;;;;;;9.40;7.40;;;13.10;99.90;;;;;;6210564;23;20344;-68
2023/09/16 04:58:35;;;;;;;8.05;6.90;;;13.10;99.90;;;;;;6184158;23;20077;-68
2023/09/16 05:01:04;;;;;;;7.30;6.53;;;13.00;99.90;;;;;;6210397;23;20028;-68
2023/09/16 05:03:31;;;;;;;7.45;6.13;;;13.10;99.90;;;;;;6210631;23;20025;-68
2023/09/16 05:05:56;;;;;;;9.50;7.47;;;13.00;99.90;;;;;;6210664;23;20488;-68
2023/09/16 05:08:22;;;;;;;11.05;7.95;;;13.00;99.90;;;;;;6183615;23;20031;-67
2023/09/16 05:10:55;;;;;;;8.30;6.60;;;13.00;99.90;;;;;;6183921;23;20030;-68
2023/09/16 05:13:21;;;;;;;9.15;6.38;;;13.00;99.90;;;;;;6183746;23;20536;-68
2023/09/16 05:15:50;;;;;;;7.40;5.65;;;13.00;99.90;;;;;;6183733;23;20690;-68
2023/09/16 05:18:17;;;;;;;6.03;5.43;;;13.00;99.90;;;;;;6210953;23;20051;-68
2023/09/16 05:20:43;;;;;;;5.28;4.60;;;12.90;99.90;;;;;;6211398;23;20021;-68
2023/09/16 05:23:09;;;;;;;4.72;4.22;;;12.90;99.90;;;;;;6210484;23;20407;-68
2023/09/16 05:25:35;;;;;;;5.38;4.85;;;12.80;99.90;;;;;;6210895;23;20070;-68
2023/09/16 05:28:01;;;;;;;5.25;4.75;;;12.80;99.90;;;;;;6210608;23;20104;-67
2023/09/16 05:30:26;;;;;;;6.47;5.72;;;12.90;99.90;;;;;;6183409;23;20013;-68
2023/09/16 05:32:52;;;;;;;6.07;5.47;;;12.90;99.90;;;;;;6210607;23;20134;-68
2023/09/16 05:35:18;;;;;;;8.13;5.60;;;12.80;99.90;;;;;;6183835;23;20031;-68
2023/09/16 05:37:44;;;;;;;8.10;6.10;;;12.90;99.90;;;;;;6210652;23;20106;-68
2023/09/16 05:40:10;;;;;;;6.70;5.65;;;12.90;99.90;;;;;;6210837;23;20017;-68
2023/09/16 05:42:36;;;;;;;7.38;5.93;;;12.90;99.90;;;;;;6183954;23;20028;-68
2023/09/16 05:45:03;;;;;;;6.57;5.55;;;12.90;99.90;;;;;;6210427;23;20456;-68
2023/09/16 05:47:30;;;;;;;7.10;6.38;;;12.90;99.90;;;;;;6183522;23;20048;-68
2023/09/16 05:49:57;;;;;;;9.48;7.07;;;12.90;99.90;;;;;;6210472;23;20024;-68
2023/09/16 05:52:22;;;;;;;6.95;6.15;;;12.90;99.90;;;;;;6183581;23;20031;-68
2023/09/16 05:54:48;;;;;;;9.98;7.18;;;13.00;99.90;;;;;;6184162;23;20024;-68
2023/09/16 05:57:14;;;;;;;9.20;7.07;;;13.10;99.90;;;;;;6210167;23;20083;-68
2023/09/16 05:59:39;;;;;;;9.10;8.18;;;13.10;99.90;;;;;;6210043;23;20024;-68
2023/09/16 06:02:05;;;;;;;12.00;7.43;;;13.10;99.90;;;;;;6210927;23;20058;-68
2023/09/16 06:04:31;;;;;;;7.68;6.70;;;13.10;99.90;;;;;;6212516;23;20052;-68
2023/09/16 06:06:57;;;;;;;8.50;7.40;;;13.20;99.90;;;;;;6212057;23;20012;-68
2023/09/16 06:09:22;;;;;;;9.75;7.75;;;13.30;99.90;;;;;;6212615;23;20028;-68
2023/09/16 06:11:48;;;;;;;12.60;8.60;;;13.30;99.90;;;;;;6212483;23;20020;-68
2023/09/16 06:14:13;;;;;;;14.48;8.60;;;13.40;99.90;;;;;;6212321;23;20103;-68
2023/09/16 06:16:39;;;;;;;10.38;8.75;;;13.40;99.90;;;;;;6212237;23;20020;-68
2023/09/16 06:19:05;;;;;;;10.40;8.80;;;13.50;99.90;;;;;;6212483;23;20023;-68
2023/09/16 06:21:31;;;;;;;13.40;9.63;;;13.50;99.90;;;;;;6185355;23;20031;-68
2023/09/16 06:23:57;;;;;;;14.02;9.00;;;13.60;99.90;;;;;;6185376;23;20420;-68
2023/09/16 06:26:23;;;;;;;13.07;10.13;;;13.70;99.90;;;;;;6185500;23;20039;-68
2023/09/16 06:28:49;;;;;;;14.70;10.48;;;13.80;99.90;;;;;;6212160;23;20025;-68
2023/09/16 06:31:15;;;;;;;11.40;10.20;;;13.90;99.90;;;;;;6212323;23;20844;-68
2023/09/16 06:33:40;;;;;;;12.57;9.88;;;13.90;99.90;;;;;;6185517;23;20082;-68
2023/09/16 06:36:06;;;;;;;12.52;9.75;;;14.00;99.90;;;;;;6212532;23;20012;-68
2023/09/16 06:38:32;;;;;;;13.75;9.95;;;14.00;99.90;;;;;;6212773;23;20103;-69
2023/09/16 06:40:58;;;;;;;15.63;10.18;;;14.10;99.90;;;;;;6212788;23;20019;-68
2023/09/16 06:43:23;;;;;;;15.30;10.88;;;14.10;99.90;;;;;;6211826;23;20033;-68
2023/09/16 06:45:49;;;;;;;12.82;10.02;;;14.20;99.90;;;;;;6212086;23;20075;-67
2023/09/16 06:48:16;;;;;;;16.65;11.25;;;14.10;99.90;;;;;;6211859;23;20048;-68
2023/09/16 06:50:43;;;;;;;18.35;11.55;;;14.20;99.90;;;;;;6211977;23;20023;-68
2023/09/16 06:53:09;;;;;;;14.77;11.27;;;14.20;99.90;;;;;;6185183;23;20083;-68
2023/09/16 06:55:34;;;;;;;15.75;12.05;;;14.20;99.90;;;;;;6185026;23;20348;-68
2023/09/16 06:58:04;;;;;;;15.88;12.15;;;14.30;99.90;;;;;;6211145;23;20461;-68
2023/09/16 07:00:30;;;;;;;14.82;12.00;;;14.40;99.90;;;;;;6154956;23;20017;-68
2023/09/16 07:02:58;;;;;;;15.05;12.10;;;14.50;99.90;;;;;;6179709;23;20491;-68
2023/09/16 07:05:24;;;;;;;17.02;12.52;;;14.50;99.90;;;;;;6155196;23;20029;-67
2023/09/16 07:07:52;;;;;;;17.35;12.25;;;14.60;99.90;;;;;;6181875;23;20437;-68
2023/09/16 07:10:19;;;;;;;15.77;11.82;;;14.60;99.90;;;;;;6154987;23;20021;-68
2023/09/16 07:12:45;;;;;;;18.17;12.43;;;14.70;99.90;;;;;;6181742;23;20020;-68
2023/09/16 07:15:10;;;;;;;16.13;12.30;;;14.70;99.90;;;;;;6181519;23;20060;-68
2023/09/16 07:17:36;;;;;;;15.90;11.30;;;14.70;99.90;;;;;;6181283;23;20024;-68
2023/09/16 07:20:02;;;;;;;13.35;11.00;;;14.80;99.90;;;;;;6181674;23;20021;-68
2023/09/16 07:22:28;;;;;;;15.35;11.57;;;14.80;99.90;;;;;;6181747;23;20463;-68
2023/09/16 07:24:54;;;;;;;16.50;11.75;;;14.90;99.90;;;;;;6181065;23;20461;-68
2023/09/16 07:27:20;;;;;;;21.05;12.95;;;14.90;99.90;;;;;;6181401;23;20017;-68
2023/09/16 07:29:46;;;;;;;18.40;12.07;;;14.90;99.90;;;;;;6181691;23;20017;-68
2023/09/16 07:32:11;;;;;;;17.67;12.40;;;15.00;99.90;;;;;;6181978;23;20333;-68
2023/09/16 07:34:37;;;;;;;18.85;12.60;;;15.00;99.90;;;;;;6179719;23;20021;-68
2023/09/16 07:37:03;;;;;;;18.05;13.32;;;15.10;99.90;;;;;;6181698;23;20017;-68
2023/09/16 07:39:32;;;;;;;17.20;13.05;;;15.10;99.90;;;;;;6181591;23;20020;-68
2023/09/16 07:41:58;;;;;;;17.42;13.40;;;15.20;99.90;;;;;;6179646;23;20464;-68
2023/09/16 07:44:23;;;;;;;17.52;12.85;;;15.30;99.90;;;;;;6179592;23;20029;-68
2023/09/16 07:46:49;;;;;;;16.60;12.48;;;15.40;99.90;;;;;;6181561;23;20013;-68
2023/09/16 07:49:15;;;;;;;18.40;13.55;;;15.50;99.90;;;;;;6181737;23;20428;-68
2023/09/16 07:51:42;;;;;;;18.05;12.68;;;15.60;99.90;;;;;;6182776;23;20048;-68
2023/09/16 07:54:08;;;;;;;19.42;13.30;;;15.70;99.90;;;;;;6181549;23;20070;-68
2023/09/16 07:56:34;;;;;;;18.25;12.80;;;15.80;99.90;;;;;;6183972;23;20592;-68
2023/09/16 07:58:59;;;;;;;20.17;12.73;;;15.90;99.90;;;;;;6186212;23;20023;-68
2023/09/16 08:01:25;;;;;;;17.70;12.50;;;16.00;99.90;;;;;;6212693;23;20024;-69
2023/09/16 08:03:51;;;;;;;17.83;11.40;;;16.20;99.90;;;;;;6211988;23;20028;-67
2023/09/16 08:06:17;;;;;;;16.10;12.07;;;16.20;99.90;;;;;;6211531;23;20016;-67
2023/09/16 08:08:42;;;;;;;15.75;11.88;;;16.30;99.90;;;;;;6211222;23;20039;-67
2023/09/16 08:11:08;;;;;;;16.75;11.60;;;16.30;99.90;;;;;;6211691;23;20016;-68
2023/09/16 08:13:34;;;;;;;16.15;11.52;;;16.40;99.90;;;;;;6211376;23;20349;-68
2023/09/16 08:15:59;;;;;;;15.13;11.50;;;16.50;99.90;;;;;;6211433;23;20048;-68
2023/09/16 08:18:25;;;;;;;18.05;11.95;;;16.50;99.90;;;;;;6184584;23;20044;-67
2023/09/16 08:20:51;;;;;;;16.77;11.02;;;16.60;99.90;;;;;;6184543;23;20025;-68
2023/09/16 08:23:17;;;;;;;19.05;12.07;;;16.60;99.90;;;;;;6210855;23;20353;-68
2023/09/16 08:25:45;;;;;;;17.33;11.63;;;16.60;99.90;;;;;;6211420;23;20016;-68
2023/09/16 08:28:11;;;;;;;14.50;10.93;;;16.70;99.90;;;;;;6211642;23;20021;-68
2023/09/16 08:30:36;;;;;;;15.65;11.93;;;16.70;99.90;;;;;;6211455;23;20075;-68
2023/09/16 08:33:02;;;;;;;18.70;11.77;;;16.80;99.90;;;;;;6159735;23;20032;-68
2023/09/16 08:35:28;;;;;;;16.45;11.55;;;17.00;99.90;;;;;;6211216;23;20024;-68
2023/09/16 08:37:58;;;;;;;15.35;10.93;;;17.00;99.90;;;;;;6210871;23;20032;-68
2023/09/16 08:40:25;;;;;;;14.45;10.88;;;17.20;99.90;;;;;;6211212;23;20052;-68
2023/09/16 08:43:09;;;;;;;17.88;10.93;;;17.20;99.90;;;;;;6184016;23;20027;-68
2023/09/16 08:45:42;;;;;;;16.65;11.52;;;17.30;99.90;;;;;;6159256;23;20540;-68
2023/09/16 08:48:18;;;;;;;16.42;10.80;;;17.40;99.90;;;;;;6210677;23;20017;-68
2023/09/16 08:50:45;;;;;;;14.57;10.65;;;17.60;99.90;;;;;;6183933;23;20056;-68
2023/09/16 08:53:14;;;;;;;15.85;10.77;;;17.60;99.90;;;;;;6183768;23;20024;-68
2023/09/16 08:55:42;;;;;;;15.25;10.85;;;17.70;99.90;;;;;;6210917;23;20044;-68
2023/09/16 08:58:09;;;;;;;15.07;10.85;;;17.60;99.90;;;;;;6210253;23;20021;-68
2023/09/16 09:00:37;;;;;;;13.55;10.48;;;17.60;99.90;;;;;;6210544;23;20053;-68
2023/09/16 09:03:03;;;;;;;13.00;10.88;;;17.70;99.90;;;;;;6184244;23;20025;-68
2023/09/16 09:05:30;;;;;;;14.23;10.07;;;17.70;99.90;;;;;;6184094;23;20400;-68
2023/09/16 09:07:56;;;;;;;13.32;9.90;;;17.80;99.90;;;;;;6158558;23;20340;-68
2023/09/16 09:10:22;;;;;;;12.32;9.98;;;17.80;99.90;;;;;;6183836;23;20020;-68
2023/09/16 09:12:49;;;;;;;13.05;9.35;;;17.80;99.90;;;;;;6210601;23;20031;-68
2023/09/16 09:15:15;;;;;;;11.95;9.48;;;17.90;99.90;;;;;;6210924;23;20043;-69
2023/09/16 09:17:45;;;;;;;13.40;10.25;;;17.90;99.90;;;;;;6210893;23;20091;-68
2023/09/16 09:20:18;;;;;;;15.23;10.52;;;18.00;99.90;;;;;;6210875;23;20411;-68
2023/09/16 09:22:45;;;;;;;13.48;9.50;;;18.10;99.90;;;;;;6211098;23;20036;-68
2023/09/16 09:25:11;;;;;;;14.10;9.07;;;18.20;99.90;;;;;;6211121;23;20025;-68
2023/09/16 09:27:37;;;;;;;11.98;9.70;;;18.20;99.90;;;;;;6184203;23;20104;-68
2023/09/16 09:30:04;;;;;;;15.15;9.40;;;18.20;99.90;;;;;;6184109;23;20032;-68
2023/09/16 09:32:31;;;;;;;11.80;9.40;;;18.30;99.90;;;;;;6211165;23;20013;-68
2023/09/16 09:35:04;;;;;;;14.93;9.75;;;18.30;99.90;;;;;;6210817;23;20012;-68
2023/09/16 09:37:30;;;;;;;12.45;8.40;;;18.50;99.90;;;;;;6212565;23;20380;-68
2023/09/16 09:40:07;;;;;;;13.68;9.68;;;18.50;99.90;;;;;;6185779;23;20025;-68
2023/09/16 09:42:41;;;;;;;13.07;9.20;;;18.60;99.90;;;;;;6185808;23;20025;-68
2023/09/16 09:45:09;;;;;;;11.05;8.30;;;18.60;99.90;;;;;;6212260;23;20046;-68
2023/09/16 09:47:35;;;;;;;18.10;9.45;;;18.70;99.90;;;;;;6185682;23;20090;-68
2023/09/16 09:50:02;;;;;;;13.68;9.68;;;18.80;99.90;;;;;;6185703;23;20110;-68
2023/09/16 09:52:29;;;;;;;16.45;9.32;;;18.90;99.90;;;;;;6160978;23;20024;-68
2023/09/16 09:54:57;;;;;;;18.98;9.90;;;18.90;99.90;;;;;;6212780;23;20016;-68
2023/09/16 09:57:23;;;;;;;14.13;9.23;;;19.00;99.90;;;;;;6185192;23;20352;-68
2023/09/16 09:59:49;;;;;;;12.23;8.57;;;19.10;99.90;;;;;;6212280;23;20385;-69
2023/09/16 10:02:15;;;;;;;12.20;8.98;;;19.00;99.90;;;;;;6212032;23;20091;-68
2023/09/16 10:04:41;;;;;;;14.73;9.32;;;19.20;99.90;;;;;;6185647;23;20044;-68
2023/09/16 10:07:07;;;;;;;12.88;8.95;;;19.20;99.90;;;;;;6212408;23;20066;-68
2023/09/16 10:09:33;;;;;;;11.75;8.05;;;19.30;99.90;;;;;;6185458;23;20028;-68
2023/09/16 10:12:00;;;;;;;14.07;8.77;;;19.40;99.90;;;;;;6185444;23;20024;-68
2023/09/16 10:14:26;;;;;;;12.38;7.78;;;19.50;99.90;;;;;;6212362;23;20326;-68
2023/09/16 10:16:52;;;;;;;9.95;7.63;;;19.50;99.90;;;;;;6185410;23;20086;-68
2023/09/16 10:19:21;;;;;;;11.35;8.02;;;19.60;99.90;;;;;;6211800;23;20062;-68
2023/09/16 10:21:46;;;;;;;10.75;7.28;;;19.70;99.90;;;;;;6185217;23;20487;-68
2023/09/16 10:24:13;;;;;;;11.18;6.80;;;19.70;99.90;;;;;;6212208;23;20017;-68
2023/09/16 10:26:40;;;;;;;11.32;6.97;;;19.80;99.90;;;;;;6185370;23;20757;-68
2023/09/16 10:29:08;;;;;;;8.93;6.57;;;19.90;99.90;;;;;;6212175;23;20095;-68
2023/09/16 10:31:34;;;;;;;8.02;5.90;;;19.80;99.90;;;;;;6211948;23;20024;-68
2023/09/16 10:34:02;;;;;;;8.10;5.13;;;19.90;99.90;;;;;;6185330;23;20404;-68
2023/09/16 10:36:29;;;;;;;7.35;5.35;;;20.10;99.90;;;;;;6185180;23;20024;-68
2023/09/16 10:38:56;;;;;;;6.30;5.00;;;20.00;99.90;;;;;;6212248;23;20020;-68
2023/09/16 10:41:24;;;;;;;6.18;4.43;;;20.10;99.90;;;;;;6212197;23;20110;-68
2023/09/16 10:43:51;;;;;;;5.65;4.65;;;20.20;99.90;;;;;;6211752;23;20048;-68
2023/09/16 10:46:17;;;;;;;6.72;4.50;;;20.30;99.90;;;;;;6211813;23;20020;-68
2023/09/16 10:48:43;;;;;;;5.28;4.20;;;20.30;99.90;;;;;;6184525;23;20028;-69
2023/09/16 10:51:21;;;;;;;5.30;3.67;;;20.40;99.90;;;;;;6212123;23;20028;-68
2023/09/16 10:53:52;;;;;;;5.97;4.28;;;20.50;99.90;;;;;;6185318;23;20056;-68
2023/09/16 10:56:32;;;;;;;6.95;4.43;;;20.50;99.90;;;;;;6211678;23;20016;-68
2023/09/16 10:59:08;;;;;;;4.20;3.50;;;20.50;99.90;;;;;;6185174;23;20032;-68
2023/09/16 11:01:37;;;;;;;5.95;3.60;;;20.60;99.90;;;;;;6212360;23;20024;-68
2023/09/16 11:04:09;;;;;;;4.47;2.92;;;20.70;99.90;;;;;;6211973;23;20024;-68
2023/09/16 11:06:36;;;;;;;4.97;3.10;;;20.80;99.90;;;;;;6185396;23;20016;-68
2023/09/16 11:09:02;;;;;;;4.47;2.83;;;20.90;99.90;;;;;;6212117;23;20048;-68
2023/09/16 11:11:28;;;;;;;3.92;2.58;;;20.90;99.90;;;;;;6212449;23;20017;-68
2023/09/16 11:13:54;;;;;;;3.63;2.83;;;21.00;99.90;;;;;;6211802;23;20089;-68
2023/09/16 11:16:21;;;;;;;2.90;2.47;;;21.00;99.90;;;;;;6212018;23;20020;-67
2023/09/16 11:18:51;;;;;;;3.47;2.47;;;21.10;99.90;;;;;;6211731;23;20374;-68
2023/09/16 11:21:19;;;;;;;3.17;2.80;;;21.10;99.90;;;;;;6211842;23;20369;-68
2023/09/16 11:23:47;;;;;;;6.47;3.05;;;21.20;99.90;;;;;;6184680;23;20029;-67
2023/09/16 11:26:18;;;;;;;3.60;2.95;;;21.30;99.90;;;;;;6211864;23;20092;-68
2023/09/16 11:28:44;;;;;;;4.70;3.17;;;21.30;99.90;;;;;;6212010;23;20063;-68
2023/09/16 11:31:09;;;;;;;3.55;2.67;;;21.30;99.90;;;;;;6184489;23;20449;-68
2023/09/16 11:33:39;;;;;;;4.18;2.70;;;21.30;99.90;;;;;;6211679;23;20354;-68
2023/09/16 11:36:18;;;;;;;5.85;2.88;;;21.30;99.90;;;;;;6211383;23;20098;-68
2023/09/16 11:38:57;;;;;;;3.63;2.85;;;21.40;99.90;;;;;;6184561;23;20020;-68
2023/09/16 11:41:24;;;;;;;4.07;2.53;;;21.40;99.90;;;;;;6184684;23;20017;-68
2023/09/16 11:43:50;;;;;;;5.55;3.25;;;21.40;99.90;;;;;;6184451;23;20078;-68
2023/09/16 11:46:16;;;;;;;5.80;2.90;;;21.50;99.90;;;;;;6211262;23;20020;-68
2023/09/16 11:48:52;;;;;;;5.07;3.22;;;21.60;99.90;;;;;;6211780;23;20461;-68
2023/09/16 11:51:21;;;;;;;4.18;3.35;;;21.70;99.90;;;;;;6211492;23;20075;-68
2023/09/16 11:53:47;;;;;;;3.05;2.75;;;21.80;99.90;;;;;;6184409;23;20615;-68
2023/09/16 11:56:13;;;;;;;3.20;2.90;;;21.80;99.90;;;;;;6210807;23;20028;-68
2023/09/16 11:58:43;;;;;;;4.38;3.05;;;21.90;99.90;;;;;;6211302;23;20016;-69
2023/09/16 12:01:11;;;;;;;4.88;2.60;;;21.90;99.90;;;;;;6210219;23;20028;-68
2023/09/16 12:03:38;;;;;;;5.00;2.60;;;21.90;99.90;;;;;;6159560;23;20056;-68
2023/09/16 12:06:04;;;;;;;4.43;2.83;;;21.90;99.90;;;;;;6211494;23;20443;-68
2023/09/16 12:08:31;;;;;;;3.70;2.70;;;22.00;99.90;;;;;;6184297;23;20048;-68
2023/09/16 12:10:57;;;;;;;5.20;2.60;;;21.90;99.90;;;;;;6184368;23;20031;-68
2023/09/16 12:13:27;;;;;;;4.90;2.70;;;22.00;99.90;;;;;;6184663;23;20028;-70
2023/09/16 12:15:53;;;;;;;5.78;2.97;;;22.00;99.90;;;;;;6184516;23;20095;-68
2023/09/16 12:18:19;;;;;;;3.95;2.67;;;22.00;99.90;;;;;;6211369;23;20466;-68
2023/09/16 12:20:46;;;;;;;3.95;2.80;;;22.10;99.90;;;;;;6211662;23;20021;-68
2023/09/16 12:23:13;;;;;;;4.00;2.80;;;22.20;99.90;;;;;;6185449;23;20031;-68
2023/09/16 12:25:43;;;;;;;4.30;2.65;;;22.20;99.90;;;;;;6211987;23;20016;-68
2023/09/16 12:28:10;;;;;;;3.63;2.78;;;22.40;99.90;;;;;;6212241;23;20027;-68
2023/09/16 12:30:43;;;;;;;4.63;3.22;;;22.30;99.90;;;;;;6185765;23;20028;-67
2023/09/16 12:33:09;;;;;;;4.22;2.50;;;22.30;99.90;;;;;;6211754;23;20055;-68
2023/09/16 12:35:39;;;;;;;3.80;2.75;;;22.30;99.90;;;;;;6211467;23;20084;-68